^^
TXWeather Station Historical Data
Daily Summary for January 15, 2022 Units:  Metric    English   Both
Daily Weekly Monthly Yearly Custom
  High: Low: Average:
Temperature: 16.1 °C 2.2 °C 9.3 °C
Dew Point: 13.9 °C -5 °C 1.2 °C
Humidity: 88% 41% 59%
Wind Speed: 51.5km/h 0km/h 26.4km/h
Wind Gust: 51.5km/h - -
Wind- - WNW
Pressure: 1022.6 hPa 1012.4 hPa -
Precipitation: 0.25 mm    
Historical Graphs
 
 
Tabular Data for January 15, 2022
Time Temperature Dew Point Pressure Wind Wind Speed Wind Gust Humidity Rainfall Rate (Hourly) solar
00:04 16.1 °C 13.3 °C 1012.4 hPa SE 4.8 km/h 6.4 km/h 84% 0 mm 0.00 W/m2
00:09 16.1 °C 13.3 °C 1012.4 hPa SE 4.8 km/h 4.8 km/h 84% 0 mm 0.00 W/m2
00:14 15.6 °C 13.3 °C 1012.4 hPa SE 4.8 km/h 4.8 km/h 84% 0 mm 0.00 W/m2
00:19 15.6 °C 13.3 °C 1012.4 hPa SE 4.8 km/h 4.8 km/h 84% 0 mm 0.00 W/m2
00:24 15.6 °C 13.3 °C 1012.4 hPa SE 4.8 km/h 4.8 km/h 84% 0 mm 0.00 W/m2
00:29 15.6 °C 13.3 °C 1012.4 hPa SE 6.4 km/h 6.4 km/h 84% 0 mm 0.00 W/m2
00:34 15.6 °C 12.8 °C 1012.4 hPa SE 3.2 km/h 4.8 km/h 84% 0 mm 0.00 W/m2
00:39 15.6 °C 12.8 °C 1012.4 hPa SE 4.8 km/h 4.8 km/h 84% 0 mm 0.00 W/m2
00:44 15.6 °C 12.8 °C 1012.4 hPa SE 4.8 km/h 4.8 km/h 84% 0 mm 0.00 W/m2
00:49 15.6 °C 12.8 °C 1012.4 hPa SE 3.2 km/h 4.8 km/h 84% 0 mm 0.00 W/m2
00:54 15.6 °C 13.3 °C 1012.4 hPa SSE 4.8 km/h 4.8 km/h 85% 0 mm 0.00 W/m2
00:59 15.6 °C 13.3 °C 1012.4 hPa SE 3.2 km/h 4.8 km/h 85% 0 mm 0.00 W/m2
01:04 15.6 °C 13.3 °C 1012.4 hPa SSE 4.8 km/h 4.8 km/h 85% 0 mm 0.00 W/m2
01:09 15.6 °C 12.8 °C 1012.4 hPa SSE 6.4 km/h 6.4 km/h 85% 0 mm 0.00 W/m2
01:14 15.6 °C 12.8 °C 1012.4 hPa SSE 6.4 km/h 6.4 km/h 85% 0 mm 0.00 W/m2
01:19 15.6 °C 12.8 °C 1012.4 hPa SE 4.8 km/h 6.4 km/h 85% 0 mm 0.00 W/m2
01:24 15.6 °C 12.8 °C 1012.4 hPa SSE 4.8 km/h 4.8 km/h 85% 0 mm 0.00 W/m2
01:29 15.6 °C 12.8 °C 1012.4 hPa SSE 6.4 km/h 8 km/h 85% 0 mm 0.00 W/m2
01:34 15.6 °C 12.8 °C 1012.4 hPa SSE 4.8 km/h 4.8 km/h 85% 0 mm 0.00 W/m2
01:39 15.6 °C 13.3 °C 1012.4 hPa SSE 8 km/h 8 km/h 86% 0 mm 0.00 W/m2
01:44 15.6 °C 13.3 °C 1012.4 hPa SSE 8 km/h 8 km/h 86% 0 mm 0.00 W/m2
01:49 15.6 °C 13.3 °C 1012.4 hPa SSE 4.8 km/h 6.4 km/h 86% 0 mm 0.00 W/m2
01:54 15.6 °C 13.3 °C 1012.4 hPa SSE 6.4 km/h 8 km/h 86% 0 mm 0.00 W/m2
01:59 15.6 °C 13.3 °C 1012.4 hPa SSE 6.4 km/h 6.4 km/h 86% 0 mm 0.00 W/m2
02:04 15.6 °C 13.3 °C 1012.4 hPa South 4.8 km/h 6.4 km/h 86% 0 mm 0.00 W/m2
02:09 15.6 °C 13.3 °C 1012.4 hPa South 3.2 km/h 3.2 km/h 86% 0 mm 0.00 W/m2
02:14 15.6 °C 13.3 °C 1012.4 hPa South 3.2 km/h 4.8 km/h 86% 0 mm 0.00 W/m2
02:19 15.6 °C 13.3 °C 1012.4 hPa South 3.2 km/h 3.2 km/h 86% 0 mm 0.00 W/m2
02:24 15.6 °C 13.3 °C 1012.4 hPa South 1.6 km/h 1.6 km/h 86% 0 mm 0.00 W/m2
02:29 15.6 °C 13.3 °C 1012.4 hPa Calm   1.6 km/h 86% 0 mm 0.00 W/m2
02:34 15.6 °C 12.8 °C 1012.4 hPa South 1.6 km/h 1.6 km/h 86% 0 mm 0.00 W/m2
02:39 15.6 °C 12.8 °C 1012.4 hPa South 1.6 km/h 1.6 km/h 86% 0 mm 0.00 W/m2
02:44 15.6 °C 12.8 °C 1012.4 hPa SW 3.2 km/h 4.8 km/h 86% 0 mm 0.00 W/m2
02:49 15.6 °C 12.8 °C 1012.4 hPa WNW 3.2 km/h 4.8 km/h 86% 0 mm 0.00 W/m2
02:54 15.6 °C 12.8 °C 1012.4 hPa West 4.8 km/h 4.8 km/h 86% 0 mm 0.00 W/m2
02:59 15.6 °C 13.3 °C 1012.4 hPa WSW 6.4 km/h 8 km/h 87% 0 mm 0.00 W/m2
03:04 15.6 °C 13.3 °C 1012.4 hPa West 8 km/h 8 km/h 87% 0 mm 0.00 W/m2
03:09 15.6 °C 13.3 °C 1012.4 hPa WSW 12.9 km/h 12.9 km/h 87% 0 mm 0.00 W/m2
03:14 15.6 °C 13.9 °C 1012.4 hPa WSW 14.5 km/h 14.5 km/h 87% 0 mm 0.00 W/m2
03:19 15.6 °C 13.9 °C 1012.4 hPa WSW 19.3 km/h 19.3 km/h 87% 0 mm 0.00 W/m2
03:24 16.1 °C 13.9 °C 1012.4 hPa West 14.5 km/h 19.3 km/h 87% 0 mm 0.00 W/m2
03:29 16.1 °C 13.9 °C 1012.4 hPa West 14.5 km/h 16.1 km/h 87% 0 mm 0.00 W/m2
03:34 16.1 °C 13.9 °C 1012.4 hPa WSW 11.3 km/h 16.1 km/h 87% 0 mm 0.00 W/m2
03:39 16.1 °C 13.9 °C 1012.4 hPa WSW 16.1 km/h 16.1 km/h 87% 0 mm 0.00 W/m2
03:44 16.1 °C 13.9 °C 1012.4 hPa West 11.3 km/h 12.9 km/h 88% 0 mm 0.00 W/m2
03:49 16.1 °C 13.9 °C 1012.4 hPa WSW 14.5 km/h 16.1 km/h 87% 0 mm 0.00 W/m2
03:54 16.1 °C 13.9 °C 1012.4 hPa WSW 14.5 km/h 14.5 km/h 87% 0 mm 0.00 W/m2
03:59 16.1 °C 13.9 °C 1012.4 hPa WNW 17.7 km/h 17.7 km/h 87% 0 mm 0.00 W/m2
04:04 16.1 °C 13.9 °C 1012.4 hPa WNW 17.7 km/h 17.7 km/h 87% 0 mm 0.00 W/m2
04:09 15.6 °C 13.9 °C 1012.4 hPa WSW 8 km/h 17.7 km/h 88% 0 mm 0.00 W/m2
04:14 15.6 °C 13.9 °C 1012.4 hPa West 17.7 km/h 17.7 km/h 87% 0 mm 0.00 W/m2
04:19 15.6 °C 13.9 °C 1012.4 hPa WNW 20.9 km/h 20.9 km/h 87% 0 mm 0.00 W/m2
04:24 15.6 °C 13.3 °C 1012.4 hPa NW 29 km/h 33.8 km/h 87% 0 mm 0.00 W/m2
04:29 15.6 °C 12.8 °C 1012.4 hPa WNW 29 km/h 33.8 km/h 86% 0 mm 0.00 W/m2
04:34 15 °C 11.7 °C 1012.4 hPa NW 19.3 km/h 22.5 km/h 82% 0 mm 0.00 W/m2
04:39 15 °C 10.6 °C 1012.4 hPa NW 24.1 km/h 24.1 km/h 77% 0 mm 0.00 W/m2
04:44 15 °C 9.4 °C 1012.4 hPa WNW 16.1 km/h 19.3 km/h 71% 0 mm 0.00 W/m2
04:49 14.4 °C 8.3 °C 1012.4 hPa NW 35.4 km/h 38.6 km/h 65% 0 mm 0.00 W/m2
04:54 14.4 °C 6.7 °C 1012.4 hPa NW 37 km/h 41.8 km/h 60% 0 mm 0.00 W/m2
04:59 14.4 °C 5.6 °C 1012.4 hPa NW 27.4 km/h 37 km/h 58% 0 mm 0.00 W/m2
05:04 13.9 °C 5.6 °C 1012.4 hPa NW 43.5 km/h 43.5 km/h 58% 0 mm 0.00 W/m2
05:09 13.9 °C 5.6 °C 1012.4 hPa NW 37 km/h 43.5 km/h 58% 0 mm 0.00 W/m2
05:14 13.3 °C 5 °C 1012.4 hPa NW 37 km/h 37 km/h 58% 0 mm 0.00 W/m2
05:19 12.8 °C 5 °C 1015.8 hPa NW 32.2 km/h 37 km/h 59% 0 mm 0.00 W/m2
05:24 12.8 °C 5 °C 1015.8 hPa NW 32.2 km/h 37 km/h 60% 0 mm 0.00 W/m2
05:29 12.8 °C 5 °C 1015.8 hPa NW 32.2 km/h 37 km/h 60% 0 mm 0.00 W/m2
05:34 12.2 °C 5 °C 1015.8 hPa WNW 32.2 km/h 32.2 km/h 60% 0 mm 0.00 W/m2
05:39 12.2 °C 5 °C 1015.8 hPa NW 30.6 km/h 30.6 km/h 60% 0 mm 0.00 W/m2
05:44 12.2 °C 4.4 °C 1015.8 hPa NW 25.7 km/h 30.6 km/h 60% 0 mm 0.00 W/m2
05:49 11.7 °C 4.4 °C 1015.8 hPa NW 29 km/h 32.2 km/h 61% 0 mm 0.00 W/m2
05:54 11.7 °C 4.4 °C 1015.8 hPa NW 33.8 km/h 33.8 km/h 61% 0 mm 0.00 W/m2
05:59 11.1 °C 3.9 °C 1015.8 hPa NW 29 km/h 33.8 km/h 61% 0 mm 0.00 W/m2
06:04 11.1 °C 3.9 °C 1015.8 hPa NW 38.6 km/h 38.6 km/h 61% 0 mm 0.00 W/m2
06:09 11.1 °C 3.9 °C 1015.8 hPa NW 37 km/h 43.5 km/h 61% 0 mm 0.00 W/m2
06:14 11.1 °C 3.9 °C 1015.8 hPa NNW 29 km/h 33.8 km/h 62% 0 mm 0.00 W/m2
06:19 10.6 °C 3.9 °C 1015.8 hPa NW 29 km/h 30.6 km/h 62% 0 mm 0.00 W/m2
06:24 10.6 °C 3.9 °C 1015.8 hPa NW 29 km/h 32.2 km/h 62% 0 mm 0.00 W/m2
06:29 10.6 °C 3.3 °C 1015.8 hPa NW 30.6 km/h 30.6 km/h 62% 0 mm 0.00 W/m2
06:34 10.6 °C 3.3 °C 1015.8 hPa NW 25.7 km/h 29 km/h 63% 0 mm 0.00 W/m2
06:39 10 °C 3.3 °C 1015.8 hPa NW 29 km/h 30.6 km/h 63% 0 mm 0.00 W/m2
06:44 10 °C 3.3 °C 1015.8 hPa NW 24.1 km/h 30.6 km/h 63% 0 mm 0.00 W/m2
06:49 10 °C 3.3 °C 1015.8 hPa NW 27.4 km/h 27.4 km/h 64% 0 mm 0.00 W/m2
06:54 10 °C 3.3 °C 1015.8 hPa NW 43.5 km/h 43.5 km/h 64% 0 mm 0.00 W/m2
06:59 10 °C 3.3 °C 1015.8 hPa NW 41.8 km/h 43.5 km/h 64% 0 mm 0.00 W/m2
07:04 9.4 °C 3.3 °C 1015.8 hPa NNW 24.1 km/h 41.8 km/h 64% 0 mm 0.00 W/m2
07:09 9.4 °C 2.8 °C 1015.8 hPa NW 37 km/h 37 km/h 64% 0 mm 0.00 W/m2
07:14 9.4 °C 2.8 °C 1015.8 hPa NW 27.4 km/h 27.4 km/h 64% 0 mm 0.00 W/m2
07:19 9.4 °C 3.3 °C 1019.2 hPa NW 32.2 km/h 33.8 km/h 65% 0 mm 0.00 W/m2
07:24 9.4 °C 3.3 °C 1019.2 hPa NW 29 km/h 38.6 km/h 65% 0 mm 0.00 W/m2
07:29 9.4 °C 2.8 °C 1015.8 hPa NW 38.6 km/h 41.8 km/h 64% 0 mm 0.00 W/m2
07:34 8.9 °C 2.8 °C 1015.8 hPa NW 35.4 km/h 38.6 km/h 64% 0 mm 0.00 W/m2
07:39 8.9 °C 2.8 °C 1015.8 hPa NW 38.6 km/h 38.6 km/h 64% 0 mm 11.00 W/m2
07:44 8.9 °C 2.2 °C 1015.8 hPa NW 38.6 km/h 43.5 km/h 64% 0 mm 14.00 W/m2
07:49 8.9 °C 2.2 °C 1019.2 hPa NNW 33.8 km/h 43.5 km/h 64% 0 mm 23.00 W/m2
07:54 8.9 °C 2.2 °C 1019.2 hPa NW 27.4 km/h 27.4 km/h 64% 0 mm 25.00 W/m2
07:59 8.3 °C 2.2 °C 1015.8 hPa NW 30.6 km/h 30.6 km/h 64% 0 mm 25.00 W/m2
08:04 8.3 °C 1.7 °C 1019.2 hPa NW 27.4 km/h 38.6 km/h 64% 0 mm 23.00 W/m2
08:09 8.3 °C 1.7 °C 1019.2 hPa NW 29 km/h 30.6 km/h 64% 0 mm 19.00 W/m2
08:14 8.3 °C 1.7 °C 1019.2 hPa NW 33.8 km/h 41.8 km/h 64% 0 mm 19.00 W/m2
08:19 8.3 °C 1.7 °C 1019.2 hPa NW 25.7 km/h 32.2 km/h 64% 0 mm 19.00 W/m2
08:24 7.8 °C 1.7 °C 1019.2 hPa NW 35.4 km/h 35.4 km/h 64% 0 mm 21.00 W/m2
08:29 7.8 °C 1.1 °C 1019.2 hPa NW 25.7 km/h 37 km/h 63% 0 mm 30.00 W/m2
08:34 7.8 °C 1.1 °C 1019.2 hPa NW 30.6 km/h 37 km/h 63% 0 mm 39.00 W/m2
08:39 7.8 °C 1.1 °C 1019.2 hPa NW 24.1 km/h 25.7 km/h 63% 0 mm 46.00 W/m2
08:44 7.8 °C 1.1 °C 1019.2 hPa NW 25.7 km/h 30.6 km/h 63% 0 mm 63.00 W/m2
08:49 7.8 °C 1.1 °C 1019.2 hPa NW 25.7 km/h 30.6 km/h 62% 0 mm 91.00 W/m2
08:54 7.8 °C 0.6 °C 1019.2 hPa NW 32.2 km/h 32.2 km/h 61% 0 mm 100.00 W/m2
08:59 7.8 °C 0.6 °C 1019.2 hPa NW 32.2 km/h 32.2 km/h 61% 0 mm 95.00 W/m2
09:04 7.8 °C 0.6 °C 1019.2 hPa NW 30.6 km/h 38.6 km/h 60% 0 mm 91.00 W/m2
09:09 7.8 °C 0.6 °C 1019.2 hPa NW 29 km/h 32.2 km/h 60% 0 mm 81.00 W/m2
09:14 7.8 °C 0.6 °C 1019.2 hPa NW 24.1 km/h 33.8 km/h 59% 0 mm 97.00 W/m2
09:19 7.8 °C 0 °C 1019.2 hPa NW 32.2 km/h 33.8 km/h 59% 0 mm 116.00 W/m2
09:24 7.8 °C 0 °C 1019.2 hPa NW 32.2 km/h 38.6 km/h 59% 0 mm 125.00 W/m2
09:29 7.8 °C 0 °C 1019.2 hPa NW 40.2 km/h 40.2 km/h 58% 0 mm 120.00 W/m2
09:34 7.8 °C 0 °C 1019.2 hPa NW 27.4 km/h 30.6 km/h 58% 0 mm 144.00 W/m2
09:39 7.8 °C 0 °C 1019.2 hPa NW 25.7 km/h 27.4 km/h 58% 0 mm 176.00 W/m2
09:44 7.8 °C 0 °C 1019.2 hPa NW 37 km/h 37 km/h 58% 0 mm 181.00 W/m2
09:49 7.8 °C 0 °C 1019.2 hPa NW 33.8 km/h 37 km/h 57% 0 mm 171.00 W/m2
09:54 7.8 °C 0 °C 1019.2 hPa NW 37 km/h 37 km/h 57% 0 mm 281.00 W/m2
09:59 8.3 °C 0 °C 1019.2 hPa NW 32.2 km/h 37 km/h 57% 0 mm 373.00 W/m2
10:04 8.3 °C 0 °C 1019.2 hPa NW 30.6 km/h 38.6 km/h 57% 0 mm 250.00 W/m2
10:09 8.3 °C 0 °C 1019.2 hPa NW 30.6 km/h 33.8 km/h 56% 0 mm 302.00 W/m2
10:14 8.3 °C 0 °C 1019.2 hPa NW 43.5 km/h 45.1 km/h 56% 0 mm 237.00 W/m2
10:19 8.3 °C 0 °C 1019.2 hPa NNW 38.6 km/h 40.2 km/h 56% 0 mm 323.00 W/m2
10:24 8.9 °C 0.6 °C 1019.2 hPa NW 35.4 km/h 37 km/h 56% 0 mm 323.00 W/m2
10:29 8.9 °C 0.6 °C 1019.2 hPa NNW 20.9 km/h 37 km/h 56% 0 mm 492.00 W/m2
10:34 9.4 °C 0.6 °C 1019.2 hPa NW 35.4 km/h 41.8 km/h 55% 0 mm 559.00 W/m2
10:39 9.4 °C 0.6 °C 1019.2 hPa NW 38.6 km/h 38.6 km/h 54% 0 mm 262.00 W/m2
10:44 8.9 °C 0.6 °C 1019.2 hPa NW 33.8 km/h 33.8 km/h 55% 0 mm 345.00 W/m2
10:49 8.9 °C 0.6 °C 1019.2 hPa NW 35.4 km/h 35.4 km/h 55% 0 mm 345.00 W/m2
10:54 8.9 °C 0.6 °C 1019.2 hPa NW 29 km/h 35.4 km/h 56% 0 mm 322.00 W/m2
10:59 8.9 °C 0.6 °C 1019.2 hPa NW 27.4 km/h 29 km/h 57% 0 mm 325.00 W/m2
11:04 8.9 °C 0.6 °C 1019.2 hPa NW 40.2 km/h 40.2 km/h 56% 0 mm 214.00 W/m2
11:09 8.9 °C 0 °C 1019.2 hPa NW 33.8 km/h 38.6 km/h 54% 0 mm 220.00 W/m2
11:14 8.3 °C 0 °C 1019.2 hPa NW 29 km/h 29 km/h 55% 0 mm 264.00 W/m2
11:19 8.9 °C 0 °C 1019.2 hPa NW 37 km/h 41.8 km/h 55% 0 mm 687.00 W/m2
11:24 8.9 °C -0.6 °C 1019.2 hPa WNW 33.8 km/h 37 km/h 53% 0 mm 656.00 W/m2
11:29 8.9 °C -0.6 °C 1019.2 hPa WNW 33.8 km/h 33.8 km/h 52% 0 mm 642.00 W/m2
11:34 8.9 °C -1.1 °C 1019.2 hPa WNW 37 km/h 38.6 km/h 50% 0 mm 705.00 W/m2
11:39 8.9 °C -1.7 °C 1019.2 hPa NW 48.3 km/h 48.3 km/h 48% 0 mm 714.00 W/m2
11:44 8.9 °C -1.7 °C 1019.2 hPa WNW 33.8 km/h 33.8 km/h 48% 0 mm 647.00 W/m2
11:49 8.9 °C -1.7 °C 1019.2 hPa NW 32.2 km/h 35.4 km/h 48% 0 mm 719.00 W/m2
11:54 8.9 °C -1.7 °C 1019.2 hPa NW 33.8 km/h 37 km/h 48% 0 mm 668.00 W/m2
11:59 8.9 °C -1.7 °C 1019.2 hPa NNW 40.2 km/h 48.3 km/h 47% 0 mm 661.00 W/m2
12:04 8.9 °C -1.7 °C 1019.2 hPa NW 32.2 km/h 40.2 km/h 48% 0 mm 663.00 W/m2
12:09 8.9 °C -2.2 °C 1019.2 hPa NW 46.7 km/h 48.3 km/h 46% 0.25 mm 638.00 W/m2
12:14 8.9 °C -2.2 °C 1019.2 hPa NW 38.6 km/h 48.3 km/h 46% 0.25 mm 673.00 W/m2
12:19 8.9 °C -2.2 °C 1019.2 hPa NNW 38.6 km/h 38.6 km/h 46% 0.25 mm 577.00 W/m2
12:24 8.9 °C -1.7 °C 1019.2 hPa NNW 32.2 km/h 41.8 km/h 48% 0.25 mm 698.00 W/m2
12:29 8.9 °C -1.7 °C 1019.2 hPa WNW 30.6 km/h 32.2 km/h 47% 0.25 mm 698.00 W/m2
12:34 9.4 °C -1.1 °C 1019.2 hPa NW 32.2 km/h 35.4 km/h 47% 0.25 mm 682.00 W/m2
12:39 9.4 °C -1.1 °C 1019.2 hPa NW 37 km/h 37 km/h 47% 0.25 mm 673.00 W/m2
12:44 9.4 °C -1.7 °C 1019.2 hPa NW 27.4 km/h 37 km/h 46% 0.25 mm 670.00 W/m2
12:49 9.4 °C -1.7 °C 1019.2 hPa NW 33.8 km/h 33.8 km/h 46% 0.25 mm 659.00 W/m2
12:54 9.4 °C -1.7 °C 1019.2 hPa NW 38.6 km/h 38.6 km/h 46% 0.25 mm 494.00 W/m2
12:59 9.4 °C -1.7 °C 1019.2 hPa NW 35.4 km/h 35.4 km/h 46% 0.25 mm 671.00 W/m2
13:04 10 °C -1.7 °C 1019.2 hPa NW 25.7 km/h 37 km/h 45% 0.25 mm 671.00 W/m2
13:09 10 °C -1.7 °C 1019.2 hPa NW 38.6 km/h 38.6 km/h 45% 0.25 mm 668.00 W/m2
13:14 9.4 °C -2.2 °C 1019.2 hPa NW 35.4 km/h 38.6 km/h 44% 0 mm 668.00 W/m2
13:19 9.4 °C -2.2 °C 1019.2 hPa NW 38.6 km/h 40.2 km/h 44% 0 mm 664.00 W/m2
13:24 9.4 °C -2.2 °C 1019.2 hPa NW 35.4 km/h 40.2 km/h 44% 0 mm 657.00 W/m2
13:29 9.4 °C -2.2 °C 1019.2 hPa NW 48.3 km/h 48.3 km/h 44% 0 mm 656.00 W/m2
13:34 9.4 °C -2.8 °C 1019.2 hPa NNW 43.5 km/h 45.1 km/h 43% 0 mm 650.00 W/m2
13:39 9.4 °C -2.8 °C 1019.2 hPa NNW 37 km/h 38.6 km/h 43% 0 mm 643.00 W/m2
13:44 9.4 °C -2.2 °C 1019.2 hPa NW 37 km/h 38.6 km/h 43% 0 mm 643.00 W/m2
13:49 9.4 °C -2.2 °C 1019.2 hPa NNW 46.7 km/h 46.7 km/h 43% 0 mm 636.00 W/m2
13:54 9.4 °C -2.2 °C 1019.2 hPa NW 32.2 km/h 46.7 km/h 43% 0 mm 633.00 W/m2
13:59 10 °C -2.2 °C 1019.2 hPa NW 35.4 km/h 35.4 km/h 43% 0 mm 624.00 W/m2
14:04 10 °C -2.2 °C 1019.2 hPa NW 32.2 km/h 45.1 km/h 43% 0 mm 621.00 W/m2
14:09 9.4 °C -2.8 °C 1019.2 hPa NW 35.4 km/h 45.1 km/h 42% 0 mm 608.00 W/m2
14:14 9.4 °C -2.2 °C 1019.2 hPa NW 32.2 km/h 32.2 km/h 43% 0 mm 598.00 W/m2
14:19 10 °C -2.8 °C 1019.2 hPa NW 29 km/h 33.8 km/h 42% 0 mm 589.00 W/m2
14:24 10 °C -2.2 °C 1019.2 hPa NW 33.8 km/h 33.8 km/h 42% 0 mm 578.00 W/m2
14:29 10 °C -2.2 °C 1019.2 hPa NW 37 km/h 37 km/h 42% 0 mm 568.00 W/m2
14:34 10 °C -2.2 °C 1019.2 hPa NW 30.6 km/h 32.2 km/h 42% 0 mm 561.00 W/m2
14:39 10 °C -2.8 °C 1019.2 hPa NW 30.6 km/h 33.8 km/h 42% 0 mm 548.00 W/m2
14:44 10 °C -2.2 °C 1019.2 hPa NW 37 km/h 37 km/h 43% 0 mm 536.00 W/m2
14:49 10 °C -2.2 °C 1019.2 hPa WNW 32.2 km/h 32.2 km/h 43% 0 mm 524.00 W/m2
14:54 10 °C -2.8 °C 1019.2 hPa NW 33.8 km/h 37 km/h 41% 0 mm 504.00 W/m2
14:59 9.4 °C -3.3 °C 1019.2 hPa NW 35.4 km/h 35.4 km/h 41% 0 mm 499.00 W/m2
15:04 9.4 °C -2.8 °C 1019.2 hPa NW 22.5 km/h 30.6 km/h 42% 0 mm 492.00 W/m2
15:09 9.4 °C -2.8 °C 1019.2 hPa NW 27.4 km/h 29 km/h 42% 0 mm 473.00 W/m2
15:14 9.4 °C -2.8 °C 1019.2 hPa NNW 35.4 km/h 41.8 km/h 42% 0 mm 461.00 W/m2
15:19 9.4 °C -3.3 °C 1019.2 hPa NNW 32.2 km/h 35.4 km/h 42% 0 mm 441.00 W/m2
15:24 9.4 °C -3.3 °C 1019.2 hPa NNW 32.2 km/h 46.7 km/h 42% 0 mm 432.00 W/m2
15:29 9.4 °C -3.3 °C 1019.2 hPa NW 38.6 km/h 51.5 km/h 41% 0 mm 410.00 W/m2
15:34 8.9 °C -3.3 °C 1019.2 hPa NW 40.2 km/h 40.2 km/h 41% 0 mm 403.00 W/m2
15:39 8.9 °C -3.9 °C 1019.2 hPa NW 37 km/h 40.2 km/h 41% 0 mm 387.00 W/m2
15:44 8.9 °C -3.3 °C 1019.2 hPa NW 29 km/h 29 km/h 42% 0 mm 369.00 W/m2
15:49 8.9 °C -3.3 °C 1019.2 hPa NW 24.1 km/h 29 km/h 42% 0 mm 352.00 W/m2
15:54 8.9 °C -3.3 °C 1019.2 hPa NW 37 km/h 37 km/h 42% 0 mm 341.00 W/m2
15:59 8.9 °C -3.3 °C 1019.2 hPa NW 25.7 km/h 32.2 km/h 42% 0 mm 325.00 W/m2
16:04 8.9 °C -3.3 °C 1019.2 hPa NW 40.2 km/h 46.7 km/h 42% 0 mm 309.00 W/m2
16:09 8.9 °C -3.3 °C 1019.2 hPa NW 38.6 km/h 40.2 km/h 42% 0 mm 295.00 W/m2
16:14 8.3 °C -3.9 °C 1019.2 hPa NW 38.6 km/h 40.2 km/h 42% 0 mm 278.00 W/m2
16:19 8.3 °C -3.9 °C 1019.2 hPa NNW 32.2 km/h 35.4 km/h 42% 0 mm 230.00 W/m2
16:24 8.3 °C -3.9 °C 1019.2 hPa NW 43.5 km/h 43.5 km/h 42% 0 mm 121.00 W/m2
16:29 8.3 °C -3.9 °C 1019.2 hPa NW 22.5 km/h 33.8 km/h 42% 0 mm 72.00 W/m2
16:34 8.3 °C -3.9 °C 1019.2 hPa WNW 25.7 km/h 33.8 km/h 42% 0 mm 105.00 W/m2
16:39 8.3 °C -3.9 °C 1019.2 hPa NW 30.6 km/h 35.4 km/h 42% 0 mm 65.00 W/m2
16:44 8.3 °C -3.9 °C 1019.2 hPa NW 51.5 km/h 51.5 km/h 42% 0 mm 49.00 W/m2
16:49 7.8 °C -4.4 °C 1019.2 hPa NW 32.2 km/h 41.8 km/h 42% 0 mm 49.00 W/m2
16:54 7.8 °C -4.4 °C 1019.2 hPa NW 40.2 km/h 45.1 km/h 42% 0 mm 35.00 W/m2
16:59 7.8 °C -4.4 °C 1019.2 hPa NW 33.8 km/h 43.5 km/h 42% 0 mm 33.00 W/m2
17:04 7.8 °C -4.4 °C 1019.2 hPa NW 27.4 km/h 33.8 km/h 43% 0 mm 40.00 W/m2
17:09 7.8 °C -4.4 °C 1019.2 hPa WNW 24.1 km/h 29 km/h 43% 0 mm 40.00 W/m2
17:14 7.8 °C -4.4 °C 1019.2 hPa NW 32.2 km/h 32.2 km/h 43% 0 mm 30.00 W/m2
17:19 7.8 °C -4.4 °C 1019.2 hPa NW 32.2 km/h 33.8 km/h 43% 0 mm 30.00 W/m2
17:24 7.2 °C -4.4 °C 1019.2 hPa NW 30.6 km/h 30.6 km/h 43% 0 mm 18.00 W/m2
17:29 7.2 °C -4.4 °C 1019.2 hPa NW 37 km/h 37 km/h 43% 0 mm 14.00 W/m2
17:34 7.2 °C -4.4 °C 1019.2 hPa NW 27.4 km/h 27.4 km/h 44% 0 mm 12.00 W/m2
17:39 6.7 °C -4.4 °C 1019.2 hPa NW 24.1 km/h 33.8 km/h 44% 0 mm 9.00 W/m2
17:44 6.7 °C -4.4 °C 1019.2 hPa NW 25.7 km/h 25.7 km/h 45% 0 mm 5.00 W/m2
17:49 6.7 °C -4.4 °C 1019.2 hPa NW 30.6 km/h 30.6 km/h 45% 0 mm 0.00 W/m2
17:54 6.7 °C -4.4 °C 1019.2 hPa NW 27.4 km/h 30.6 km/h 45% 0 mm 0.00 W/m2
17:59 6.7 °C -4.4 °C 1022.6 hPa NW 25.7 km/h 29 km/h 45% 0 mm 0.00 W/m2
18:04 6.7 °C -4.4 °C 1022.6 hPa NW 22.5 km/h 25.7 km/h 45% 0 mm 0.00 W/m2
18:09 6.7 °C -4.4 °C 1022.6 hPa NW 20.9 km/h 29 km/h 45% 0 mm 0.00 W/m2
18:14 6.1 °C -4.4 °C 1022.6 hPa NW 17.7 km/h 22.5 km/h 46% 0 mm 0.00 W/m2
18:19 6.1 °C -4.4 °C 1022.6 hPa NW 27.4 km/h 27.4 km/h 46% 0 mm 0.00 W/m2
18:24 6.1 °C -4.4 °C 1022.6 hPa NW 29 km/h 29 km/h 46% 0 mm 0.00 W/m2
18:29 6.1 °C -4.4 °C 1022.6 hPa NW 29 km/h 29 km/h 46% 0 mm 0.00 W/m2
18:34 6.1 °C -5 °C 1022.6 hPa NW 19.3 km/h 19.3 km/h 46% 0 mm 0.00 W/m2
18:39 6.1 °C -5 °C 1022.6 hPa NW 25.7 km/h 29 km/h 46% 0 mm 0.00 W/m2
18:44 5.6 °C -4.4 °C 1022.6 hPa NW 29 km/h 29 km/h 47% 0 mm 0.00 W/m2
18:49 5.6 °C -4.4 °C 1022.6 hPa NW 25.7 km/h 25.7 km/h 47% 0 mm 0.00 W/m2
18:54 5.6 °C -4.4 °C 1022.6 hPa NW 19.3 km/h 19.3 km/h 47% 0 mm 0.00 W/m2
18:59 5.6 °C -4.4 °C 1022.6 hPa NW 25.7 km/h 25.7 km/h 48% 0 mm 0.00 W/m2
19:04 5.6 °C -5 °C 1022.6 hPa NW 22.5 km/h 25.7 km/h 47% 0 mm 0.00 W/m2
19:09 5.6 °C -5 °C 1022.6 hPa NW 24.1 km/h 24.1 km/h 47% 0 mm 0.00 W/m2
19:14 5.6 °C -5 °C 1022.6 hPa NW 20.9 km/h 24.1 km/h 47% 0 mm 0.00 W/m2
19:19 5.6 °C -5 °C 1022.6 hPa NW 29 km/h 29 km/h 47% 0 mm 0.00 W/m2
19:24 5.6 °C -4.4 °C 1022.6 hPa NW 24.1 km/h 24.1 km/h 48% 0 mm 0.00 W/m2
19:29 5.6 °C -5 °C 1022.6 hPa NW 25.7 km/h 29 km/h 48% 0 mm 0.00 W/m2
19:34 5.6 °C -5 °C 1022.6 hPa NW 24.1 km/h 24.1 km/h 48% 0 mm 0.00 W/m2
19:39 5 °C -5 °C 1022.6 hPa NW 25.7 km/h 25.7 km/h 48% 0 mm 0.00 W/m2
19:44 5 °C -5 °C 1022.6 hPa NW 22.5 km/h 25.7 km/h 48% 0 mm 0.00 W/m2
19:49 5 °C -4.4 °C 1022.6 hPa NW 29 km/h 29 km/h 49% 0 mm 0.00 W/m2
19:54 5 °C -4.4 °C 1022.6 hPa NW 19.3 km/h 29 km/h 49% 0 mm 0.00 W/m2
19:59 5 °C -4.4 °C 1022.6 hPa WNW 19.3 km/h 22.5 km/h 49% 0 mm 0.00 W/m2
20:04 5 °C -5 °C 1022.6 hPa NW 25.7 km/h 25.7 km/h 49% 0 mm 0.00 W/m2
20:09 5 °C -4.4 °C 1022.6 hPa NW 20.9 km/h 24.1 km/h 50% 0 mm 0.00 W/m2
20:14 5 °C -4.4 °C 1022.6 hPa NW 29 km/h 40.2 km/h 50% 0 mm 0.00 W/m2
20:19 5 °C -5 °C 1022.6 hPa NW 30.6 km/h 35.4 km/h 49% 0 mm 0.00 W/m2
20:24 5 °C -5 °C 1022.6 hPa NW 20.9 km/h 40.2 km/h 49% 0 mm 0.00 W/m2
20:29 5 °C -5 °C 1022.6 hPa NW 22.5 km/h 24.1 km/h 49% 0 mm 0.00 W/m2
20:34 5 °C -5 °C 1022.6 hPa NW 29 km/h 30.6 km/h 49% 0 mm 0.00 W/m2
20:39 5 °C -5 °C 1022.6 hPa NW 29 km/h 30.6 km/h 50% 0 mm 0.00 W/m2
20:44 4.4 °C -5 °C 1022.6 hPa NW 37 km/h 37 km/h 50% 0 mm 0.00 W/m2
20:49 4.4 °C -5 °C 1022.6 hPa NW 24.1 km/h 37 km/h 50% 0 mm 0.00 W/m2
20:54 4.4 °C -5 °C 1022.6 hPa NW 24.1 km/h 30.6 km/h 51% 0 mm 0.00 W/m2
20:59 4.4 °C -5 °C 1022.6 hPa NW 25.7 km/h 30.6 km/h 51% 0 mm 0.00 W/m2
21:04 4.4 °C -5 °C 1022.6 hPa NW 29 km/h 29 km/h 51% 0 mm 0.00 W/m2
21:09 3.9 °C -5 °C 1022.6 hPa NW 24.1 km/h 25.7 km/h 51% 0 mm 0.00 W/m2
21:14 3.9 °C -5 °C 1022.6 hPa NW 24.1 km/h 24.1 km/h 52% 0 mm 0.00 W/m2
21:19 3.9 °C -5 °C 1022.6 hPa NW 20.9 km/h 29 km/h 52% 0 mm 0.00 W/m2
21:24 3.9 °C -5 °C 1022.6 hPa WNW 22.5 km/h 24.1 km/h 52% 0 mm 0.00 W/m2
21:29 3.9 °C -5 °C 1022.6 hPa NW 25.7 km/h 29 km/h 53% 0 mm 0.00 W/m2
21:34 3.9 °C -5 °C 1022.6 hPa NW 27.4 km/h 29 km/h 53% 0 mm 0.00 W/m2
21:39 3.9 °C -5 °C 1022.6 hPa NW 27.4 km/h 30.6 km/h 53% 0 mm 0.00 W/m2
21:44 3.9 °C -5 °C 1022.6 hPa NW 27.4 km/h 27.4 km/h 53% 0 mm 0.00 W/m2
21:49 3.9 °C -5 °C 1022.6 hPa NW 30.6 km/h 33.8 km/h 53% 0 mm 0.00 W/m2
21:54 3.9 °C -5 °C 1022.6 hPa NW 24.1 km/h 24.1 km/h 54% 0 mm 0.00 W/m2
21:59 3.3 °C -5 °C 1022.6 hPa NW 24.1 km/h 33.8 km/h 54% 0 mm 0.00 W/m2
22:04 3.3 °C -5 °C 1022.6 hPa NW 32.2 km/h 32.2 km/h 54% 0 mm 0.00 W/m2
22:09 3.3 °C -5 °C 1022.6 hPa NW 29 km/h 40.2 km/h 54% 0 mm 0.00 W/m2
22:14 3.3 °C -5 °C 1022.6 hPa NW 30.6 km/h 30.6 km/h 54% 0 mm 0.00 W/m2
22:19 3.3 °C -5 °C 1022.6 hPa NW 33.8 km/h 33.8 km/h 54% 0 mm 0.00 W/m2
22:24 3.3 °C -5 °C 1022.6 hPa NW 33.8 km/h 33.8 km/h 55% 0 mm 0.00 W/m2
22:29 3.3 °C -5 °C 1022.6 hPa NW 22.5 km/h 33.8 km/h 55% 0 mm 0.00 W/m2
22:34 2.8 °C -5 °C 1022.6 hPa NW 24.1 km/h 24.1 km/h 55% 0 mm 0.00 W/m2
22:39 2.8 °C -5 °C 1022.6 hPa NW 24.1 km/h 24.1 km/h 55% 0 mm 0.00 W/m2
22:44 2.8 °C -5 °C 1022.6 hPa NW 20.9 km/h 24.1 km/h 56% 0 mm 0.00 W/m2
22:49 2.8 °C -5 °C 1022.6 hPa NW 29 km/h 29 km/h 56% 0 mm 0.00 W/m2
22:54 2.8 °C -5 °C 1022.6 hPa NW 20.9 km/h 24.1 km/h 56% 0 mm 0.00 W/m2
22:59 2.8 °C -5 °C 1022.6 hPa NW 22.5 km/h 24.1 km/h 56% 0 mm 0.00 W/m2
23:04 2.8 °C -5 °C 1022.6 hPa NW 20.9 km/h 24.1 km/h 56% 0 mm 0.00 W/m2
23:09 2.8 °C -5 °C 1022.6 hPa NW 24.1 km/h 25.7 km/h 57% 0 mm 0.00 W/m2
23:14 2.8 °C -5 °C 1022.6 hPa WNW 24.1 km/h 25.7 km/h 57% 0 mm 0.00 W/m2
23:19 2.8 °C -5 °C 1022.6 hPa NW 24.1 km/h 29 km/h 57% 0 mm 0.00 W/m2
23:24 2.8 °C -5 °C 1022.6 hPa NW 25.7 km/h 25.7 km/h 57% 0 mm 0.00 W/m2
23:29 2.8 °C -5 °C 1022.6 hPa NW 20.9 km/h 27.4 km/h 57% 0 mm 0.00 W/m2
23:34 2.2 °C -5 °C 1022.6 hPa NW 25.7 km/h 27.4 km/h 57% 0 mm 0.00 W/m2
23:39 2.2 °C -5 °C 1022.6 hPa NW 19.3 km/h 27.4 km/h 58% 0 mm 0.00 W/m2
23:44 2.2 °C -5 °C 1022.6 hPa NW 20.9 km/h 24.1 km/h 58% 0 mm 0.00 W/m2
23:49 2.2 °C -5 °C 1022.6 hPa NW 25.7 km/h 30.6 km/h 58% 0 mm 0.00 W/m2
23:54 2.2 °C -5 °C 1022.6 hPa NW 19.3 km/h 30.6 km/h 58% 0 mm 0.00 W/m2
23:59 2.2 °C -5 °C 1022.6 hPa NW 24.1 km/h 27.4 km/h 58% 0 mm 0.00 W/m2
Villages of Bridgestone, Spring, TX USA
Compliments of Weather Underground - 4 mb